sensor_id;sensor_type;location;lat;lon;timestamp;pressure;altitude;pressure_sealevel;temperature;humidity
26657;BME280;14279;50.010;8.260;2023-04-04T00:00:09;101620.63;;;3.25;50.80
26657;BME280;14279;50.010;8.260;2023-04-04T00:02:35;101619.75;;;3.23;50.61
26657;BME280;14279;50.010;8.260;2023-04-04T00:05:00;101626.66;;;3.27;50.36
26657;BME280;14279;50.010;8.260;2023-04-04T00:07:26;101618.09;;;3.31;50.42
26657;BME280;14279;50.010;8.260;2023-04-04T00:09:52;101616.31;;;3.18;51.07
26657;BME280;14279;50.010;8.260;2023-04-04T00:12:17;101612.03;;;3.23;50.39
26657;BME280;14279;50.010;8.260;2023-04-04T00:14:42;101612.88;;;3.19;50.44
26657;BME280;14279;50.010;8.260;2023-04-04T00:17:07;101611.09;;;3.00;50.46
26657;BME280;14279;50.010;8.260;2023-04-04T00:19:33;101606.88;;;3.15;50.72
26657;BME280;14279;50.010;8.260;2023-04-04T00:21:58;101606.81;;;3.06;50.84
26657;BME280;14279;50.010;8.260;2023-04-04T00:24:24;101601.72;;;3.20;50.40
26657;BME280;14279;50.010;8.260;2023-04-04T00:26:49;101611.13;;;3.08;50.42
26657;BME280;14279;50.010;8.260;2023-04-04T00:29:15;101607.72;;;3.14;50.57
26657;BME280;14279;50.010;8.260;2023-04-04T00:31:41;101606.88;;;3.20;50.40
26657;BME280;14279;50.010;8.260;2023-04-04T00:34:06;101602.50;;;3.05;50.09
26657;BME280;14279;50.010;8.260;2023-04-04T00:36:32;101598.22;;;3.00;50.63
26657;BME280;14279;50.010;8.260;2023-04-04T00:38:57;101599.94;;;2.98;50.68
26657;BME280;14279;50.010;8.260;2023-04-04T00:41:22;101599.84;;;2.86;50.91
26657;BME280;14279;50.010;8.260;2023-04-04T00:43:47;101595.63;;;2.97;50.66
26657;BME280;14279;50.010;8.260;2023-04-04T00:46:13;101595.59;;;2.87;50.72
26657;BME280;14279;50.010;8.260;2023-04-04T00:48:41;101594.78;;;3.05;50.90
26657;BME280;14279;50.010;8.260;2023-04-04T00:51:07;101585.28;;;2.87;51.17
26657;BME280;14279;50.010;8.260;2023-04-04T00:53:32;101589.59;;;2.92;50.90
26657;BME280;14279;50.010;8.260;2023-04-04T00:55:58;101593.03;;;2.91;50.74
26657;BME280;14279;50.010;8.260;2023-04-04T00:58:24;101596.44;;;2.92;51.21
26657;BME280;14279;50.010;8.260;2023-04-04T01:00:50;101594.69;;;2.83;51.12
26657;BME280;14279;50.010;8.260;2023-04-04T01:03:16;101594.66;;;2.74;51.50
26657;BME280;14279;50.010;8.260;2023-04-04T01:05:42;101593.84;;;2.85;51.36
26657;BME280;14279;50.010;8.260;2023-04-04T01:08:07;101594.72;;;2.84;51.20
26657;BME280;14279;50.010;8.260;2023-04-04T01:10:33;101589.59;;;2.94;51.53
26657;BME280;14279;50.010;8.260;2023-04-04T01:12:59;101580.13;;;2.90;51.06
26657;BME280;14279;50.010;8.260;2023-04-04T01:15:24;101586.88;;;2.69;51.26
26657;BME280;14279;50.010;8.260;2023-04-04T01:17:51;101580.00;;;2.62;51.25
26657;BME280;14279;50.010;8.260;2023-04-04T01:20:24;101584.34;;;2.70;50.99
26657;BME280;14279;50.010;8.260;2023-04-04T01:22:50;101585.25;;;2.80;51.22
26657;BME280;14279;50.010;8.260;2023-04-04T01:25:17;101584.34;;;2.75;51.42
26657;BME280;14279;50.010;8.260;2023-04-04T01:27:43;101587.81;;;2.80;51.25
26657;BME280;14279;50.010;8.260;2023-04-04T01:30:09;101580.09;;;2.79;51.23
26657;BME280;14279;50.010;8.260;2023-04-04T01:32:50;101571.63;;;3.01;51.03
26657;BME280;14279;50.010;8.260;2023-04-04T01:35:24;101570.75;;;2.98;51.15
26657;BME280;14279;50.010;8.260;2023-04-04T01:38:29;101577.63;;;2.97;50.81
26657;BME280;14279;50.010;8.260;2023-04-04T01:40:58;101571.63;;;3.05;51.08
26657;BME280;14279;50.010;8.260;2023-04-04T01:43:25;101575.78;;;2.78;50.95
26657;BME280;14279;50.010;8.260;2023-04-04T01:45:50;101577.56;;;2.90;51.32
26657;BME280;14279;50.010;8.260;2023-04-04T01:48:15;101572.44;;;2.88;50.95
26657;BME280;14279;50.010;8.260;2023-04-04T01:50:41;101566.44;;;2.92;50.87
26657;BME280;14279;50.010;8.260;2023-04-04T01:53:06;101573.25;;;2.79;51.60
26657;BME280;14279;50.010;8.260;2023-04-04T01:55:31;101564.59;;;2.65;51.43
26657;BME280;14279;50.010;8.260;2023-04-04T01:57:57;101572.34;;;2.69;51.40
26657;BME280;14279;50.010;8.260;2023-04-04T02:00:22;101572.38;;;2.77;51.02
26657;BME280;14279;50.010;8.260;2023-04-04T02:02:48;101568.13;;;2.82;51.47
26657;BME280;14279;50.010;8.260;2023-04-04T02:05:13;101568.13;;;2.82;50.67
26657;BME280;14279;50.010;8.260;2023-04-04T02:07:38;101577.44;;;2.66;51.45
26657;BME280;14279;50.010;8.260;2023-04-04T02:10:04;101572.31;;;2.71;51.53
26657;BME280;14279;50.010;8.260;2023-04-04T02:12:29;101571.50;;;2.75;50.97
26657;BME280;14279;50.010;8.260;2023-04-04T02:14:54;101574.09;;;2.83;51.58
26657;BME280;14279;50.010;8.260;2023-04-04T02:17:19;101575.00;;;2.90;51.19
26657;BME280;14279;50.010;8.260;2023-04-04T02:19:45;101574.97;;;2.85;51.09
26657;BME280;14279;50.010;8.260;2023-04-04T02:22:10;101577.50;;;2.76;51.49
26657;BME280;14279;50.010;8.260;2023-04-04T02:24:35;101581.75;;;2.67;51.34
26657;BME280;14279;50.010;8.260;2023-04-04T02:27:01;101580.03;;;2.66;50.99
26657;BME280;14279;50.010;8.260;2023-04-04T02:29:26;101586.09;;;2.75;50.97
26657;BME280;14279;50.010;8.260;2023-04-04T02:31:51;101579.16;;;2.66;50.81
26657;BME280;14279;50.010;8.260;2023-04-04T02:34:17;101583.44;;;2.67;50.81
26657;BME280;14279;50.010;8.260;2023-04-04T02:36:42;101581.69;;;2.57;51.56
26657;BME280;14279;50.010;8.260;2023-04-04T02:39:07;101581.69;;;2.61;50.59
26657;BME280;14279;50.010;8.260;2023-04-04T02:41:32;101576.56;;;2.61;51.01
26657;BME280;14279;50.010;8.260;2023-04-04T02:43:58;101580.69;;;2.39;51.42
26657;BME280;14279;50.010;8.260;2023-04-04T02:46:23;101571.38;;;2.55;51.29
26657;BME280;14279;50.010;8.260;2023-04-04T02:48:48;101570.53;;;2.59;50.95
26657;BME280;14279;50.010;8.260;2023-04-04T02:51:15;101569.72;;;2.63;50.59
26657;BME280;14279;50.010;8.260;2023-04-04T02:53:40;101569.72;;;2.66;50.60
26657;BME280;14279;50.010;8.260;2023-04-04T02:56:06;101563.69;;;2.61;51.11
26657;BME280;14279;50.010;8.260;2023-04-04T02:58:31;101570.59;;;2.64;50.35
26657;BME280;14279;50.010;8.260;2023-04-04T03:00:57;101567.13;;;2.59;50.74
26657;BME280;14279;50.010;8.260;2023-04-04T03:03:22;101557.72;;;2.65;50.49
26657;BME280;14279;50.010;8.260;2023-04-04T03:05:48;101557.72;;;2.62;50.56
26657;BME280;14279;50.010;8.260;2023-04-04T03:08:14;101558.50;;;2.53;50.67
26657;BME280;14279;50.010;8.260;2023-04-04T03:10:39;101554.31;;;2.65;50.18
26657;BME280;14279;50.010;8.260;2023-04-04T03:13:05;101560.16;;;2.39;50.77
26657;BME280;14279;50.010;8.260;2023-04-04T03:15:30;101552.53;;;2.59;50.65
26657;BME280;14279;50.010;8.260;2023-04-04T03:17:55;101556.75;;;2.46;50.94
26657;BME280;14279;50.010;8.260;2023-04-04T03:20:21;101549.13;;;2.59;50.86
26657;BME280;14279;50.010;8.260;2023-04-04T03:22:46;101551.53;;;2.34;50.70
26657;BME280;14279;50.010;8.260;2023-04-04T03:25:12;101552.44;;;2.39;51.20
26657;BME280;14279;50.010;8.260;2023-04-04T03:27:37;101545.66;;;2.49;50.95
26657;BME280;14279;50.010;8.260;2023-04-04T03:30:05;101548.22;;;2.52;50.56
26657;BME280;14279;50.010;8.260;2023-04-04T03:32:30;101545.63;;;2.50;50.26
26657;BME280;14279;50.010;8.260;2023-04-04T03:34:55;101542.97;;;2.36;50.82
26657;BME280;14279;50.010;8.260;2023-04-04T03:37:20;101543.78;;;2.32;50.59
26657;BME280;14279;50.010;8.260;2023-04-04T03:39:46;101547.34;;;2.53;50.77
26657;BME280;14279;50.010;8.260;2023-04-04T03:42:12;101543.03;;;2.43;50.75
26657;BME280;14279;50.010;8.260;2023-04-04T03:44:41;101539.56;;;2.37;50.86
26657;BME280;14279;50.010;8.260;2023-04-04T03:47:06;101544.78;;;2.51;50.51
26657;BME280;14279;50.010;8.260;2023-04-04T03:49:33;101543.91;;;2.49;50.32
26657;BME280;14279;50.010;8.260;2023-04-04T03:51:58;101544.66;;;2.34;50.52
26657;BME280;14279;50.010;8.260;2023-04-04T03:54:23;101540.44;;;2.43;50.16
26657;BME280;14279;50.010;8.260;2023-04-04T03:56:48;101531.81;;;2.33;50.07
26657;BME280;14279;50.010;8.260;2023-04-04T03:59:14;101536.06;;;2.29;50.32
26657;BME280;14279;50.010;8.260;2023-04-04T04:01:39;101529.25;;;2.34;50.66
26657;BME280;14279;50.010;8.260;2023-04-04T04:04:05;101531.81;;;2.28;50.75
26657;BME280;14279;50.010;8.260;2023-04-04T04:06:30;101538.59;;;2.23;50.85
26657;BME280;14279;50.010;8.260;2023-04-04T04:08:56;101535.97;;;2.12;50.98
26657;BME280;14279;50.010;8.260;2023-04-04T04:11:21;101538.75;;;2.40;50.92
26657;BME280;14279;50.010;8.260;2023-04-04T04:13:46;101532.59;;;2.22;50.24
26657;BME280;14279;50.010;8.260;2023-04-04T04:16:11;101524.91;;;2.24;51.00
26657;BME280;14279;50.010;8.260;2023-04-04T04:18:36;101531.75;;;2.22;50.85
26657;BME280;14279;50.010;8.260;2023-04-04T04:21:02;101530.75;;;2.03;50.68
26657;BME280;14279;50.010;8.260;2023-04-04T04:23:28;101525.72;;;2.20;51.07
26657;BME280;14279;50.010;8.260;2023-04-04T04:25:54;101521.59;;;2.40;50.59
26657;BME280;14279;50.010;8.260;2023-04-04T04:28:19;101519.78;;;2.30;50.45
26657;BME280;14279;50.010;8.260;2023-04-04T04:30:44;101519.81;;;2.32;50.51
26657;BME280;14279;50.010;8.260;2023-04-04T04:33:10;101525.94;;;2.49;50.78
26657;BME280;14279;50.010;8.260;2023-04-04T04:35:36;101525.03;;;2.43;50.84
26657;BME280;14279;50.010;8.260;2023-04-04T04:38:02;101526.63;;;2.27;50.02
26657;BME280;14279;50.010;8.260;2023-04-04T04:40:27;101531.03;;;2.42;50.47
26657;BME280;14279;50.010;8.260;2023-04-04T04:42:53;101529.25;;;2.34;50.46
26657;BME280;14279;50.010;8.260;2023-04-04T04:45:18;101532.59;;;2.22;50.48
26657;BME280;14279;50.010;8.260;2023-04-04T04:47:43;101532.56;;;2.19;50.64
26657;BME280;14279;50.010;8.260;2023-04-04T04:50:09;101530.97;;;2.35;50.30
26657;BME280;14279;50.010;8.260;2023-04-04T04:52:37;101539.41;;;2.17;50.45
26657;BME280;14279;50.010;8.260;2023-04-04T04:55:03;101533.47;;;2.23;50.29
26657;BME280;14279;50.010;8.260;2023-04-04T04:57:29;101538.50;;;2.09;50.26
26657;BME280;14279;50.010;8.260;2023-04-04T04:59:55;101531.63;;;2.06;50.55
26657;BME280;14279;50.010;8.260;2023-04-04T05:02:20;101540.34;;;2.30;50.14
26657;BME280;14279;50.010;8.260;2023-04-04T05:04:45;101534.41;;;2.33;50.72
26657;BME280;14279;50.010;8.260;2023-04-04T05:07:10;101536.16;;;2.40;49.87
26657;BME280;14279;50.010;8.260;2023-04-04T05:09:36;101543.75;;;2.23;50.24
26657;BME280;14279;50.010;8.260;2023-04-04T05:12:02;101542.06;;;2.28;50.87
26657;BME280;14279;50.010;8.260;2023-04-04T05:14:27;101553.16;;;2.22;50.50
26657;BME280;14279;50.010;8.260;2023-04-04T05:16:53;101552.31;;;2.27;49.96
26657;BME280;14279;50.010;8.260;2023-04-04T05:19:18;101550.63;;;2.29;50.32
26657;BME280;14279;50.010;8.260;2023-04-04T05:21:43;101555.72;;;2.22;50.30
26657;BME280;14279;50.010;8.260;2023-04-04T05:24:08;101543.00;;;2.39;50.27
26657;BME280;14279;50.010;8.260;2023-04-04T05:26:34;101555.78;;;2.27;50.42
26657;BME280;14279;50.010;8.260;2023-04-04T05:28:59;101543.78;;;2.28;50.32
26657;BME280;14279;50.010;8.260;2023-04-04T05:31:24;101545.53;;;2.32;50.46
26657;BME280;14279;50.010;8.260;2023-04-04T05:33:50;101543.94;;;2.51;49.74
26657;BME280;14279;50.010;8.260;2023-04-04T05:36:16;101540.50;;;2.49;49.84
26657;BME280;14279;50.010;8.260;2023-04-04T05:38:41;101537.22;;;2.78;49.47
26657;BME280;14279;50.010;8.260;2023-04-04T05:41:07;101539.81;;;2.82;49.99
26657;BME280;14279;50.010;8.260;2023-04-04T05:43:32;101539.88;;;2.95;49.46
26657;BME280;14279;50.010;8.260;2023-04-04T05:45:57;101541.47;;;2.71;49.77
26657;BME280;14279;50.010;8.260;2023-04-04T05:48:23;101529.53;;;2.84;48.81
26657;BME280;14279;50.010;8.260;2023-04-04T05:50:48;101543.13;;;2.57;49.63
26657;BME280;14279;50.010;8.260;2023-04-04T05:53:13;101539.78;;;2.72;49.25
26657;BME280;14279;50.010;8.260;2023-04-04T05:55:39;101538.94;;;2.76;49.70
26657;BME280;14279;50.010;8.260;2023-04-04T05:58:04;101535.47;;;2.72;49.42
26657;BME280;14279;50.010;8.260;2023-04-04T06:00:29;101541.47;;;2.71;48.66
26657;BME280;14279;50.010;8.260;2023-04-04T06:02:55;101538.06;;;2.70;49.42
26657;BME280;14279;50.010;8.260;2023-04-04T06:05:22;101537.31;;;2.98;49.01
26657;BME280;14279;50.010;8.260;2023-04-04T06:07:48;101539.91;;;3.03;48.69
26657;BME280;14279;50.010;8.260;2023-04-04T06:10:13;101544.25;;;3.18;48.06
26657;BME280;14279;50.010;8.260;2023-04-04T06:12:38;101541.69;;;3.11;47.90
26657;BME280;14279;50.010;8.260;2023-04-04T06:15:04;101542.56;;;3.30;47.97
26657;BME280;14279;50.010;8.260;2023-04-04T06:17:29;101551.16;;;3.25;47.94
26657;BME280;14279;50.010;8.260;2023-04-04T06:19:54;101553.75;;;3.36;47.51
26657;BME280;14279;50.010;8.260;2023-04-04T06:22:20;101551.09;;;3.11;47.06
26657;BME280;14279;50.010;8.260;2023-04-04T06:24:46;101549.53;;;3.55;47.31
26657;BME280;14279;50.010;8.260;2023-04-04T06:27:11;101549.44;;;3.30;46.84
26657;BME280;14279;50.010;8.260;2023-04-04T06:29:36;101543.38;;;3.09;47.02
26657;BME280;14279;50.010;8.260;2023-04-04T06:32:01;101552.00;;;3.22;46.36
26657;BME280;14279;50.010;8.260;2023-04-04T06:34:27;101561.56;;;3.67;46.10
26657;BME280;14279;50.010;8.260;2023-04-04T06:36:52;101561.34;;;3.05;46.68
26657;BME280;14279;50.010;8.260;2023-04-04T06:39:18;101562.28;;;3.19;46.46
26657;BME280;14279;50.010;8.260;2023-04-04T06:41:43;101558.06;;;3.48;46.05
26657;BME280;14279;50.010;8.260;2023-04-04T06:44:08;101562.41;;;3.63;46.16
26657;BME280;14279;50.010;8.260;2023-04-04T06:46:36;101558.97;;;3.64;45.84
26657;BME280;14279;50.010;8.260;2023-04-04T06:49:03;101563.22;;;3.40;45.80
26657;BME280;14279;50.010;8.260;2023-04-04T06:51:29;101558.97;;;3.71;46.14
26657;BME280;14279;50.010;8.260;2023-04-04T06:53:55;101567.53;;;3.53;45.93
26657;BME280;14279;50.010;8.260;2023-04-04T06:56:21;101559.78;;;3.50;45.61
26657;BME280;14279;50.010;8.260;2023-04-04T06:58:47;101566.66;;;3.46;45.52
26657;BME280;14279;50.010;8.260;2023-04-04T07:01:12;101571.84;;;3.65;45.41
26657;BME280;14279;50.010;8.260;2023-04-04T07:03:37;101572.69;;;3.58;45.07
26657;BME280;14279;50.010;8.260;2023-04-04T07:06:03;101564.03;;;3.31;45.37
26657;BME280;14279;50.010;8.260;2023-04-04T07:08:29;101566.69;;;3.57;45.67
26657;BME280;14279;50.010;8.260;2023-04-04T07:10:54;101569.22;;;3.51;46.03
26657;BME280;14279;50.010;8.260;2023-04-04T07:13:20;101571.00;;;3.65;45.65
26657;BME280;14279;50.010;8.260;2023-04-04T07:15:45;101574.47;;;3.73;46.23
26657;BME280;14279;50.010;8.260;2023-04-04T07:18:13;101580.47;;;4.06;45.05
26657;BME280;14279;50.010;8.260;2023-04-04T07:20:39;101575.25;;;3.49;46.10
26657;BME280;14279;50.010;8.260;2023-04-04T07:23:04;101574.47;;;3.81;45.39
26657;BME280;14279;50.010;8.260;2023-04-04T07:25:30;101582.19;;;4.01;45.17
26657;BME280;14279;50.010;8.260;2023-04-04T07:27:55;101584.78;;;4.33;44.70
26657;BME280;14279;50.010;8.260;2023-04-04T07:30:20;101584.78;;;4.27;44.88
26657;BME280;14279;50.010;8.260;2023-04-04T07:32:56;101580.47;;;4.46;45.23
26657;BME280;14279;50.010;8.260;2023-04-04T07:35:22;101583.91;;;4.51;44.02
26657;BME280;14279;50.010;8.260;2023-04-04T07:37:47;101581.31;;;4.61;43.90
26657;BME280;14279;50.010;8.260;2023-04-04T07:40:12;101583.06;;;4.15;43.71
26657;BME280;14279;50.010;8.260;2023-04-04T07:42:45;101577.03;;;3.70;44.45
26657;BME280;14279;50.010;8.260;2023-04-04T07:45:12;101588.16;;;3.61;44.62
26657;BME280;14279;50.010;8.260;2023-04-04T07:47:44;101589.06;;;3.82;45.25
26657;BME280;14279;50.010;8.260;2023-04-04T07:50:10;101581.34;;;4.16;44.19
26657;BME280;14279;50.010;8.260;2023-04-04T07:52:36;101585.66;;;4.34;44.36
26657;BME280;14279;50.010;8.260;2023-04-04T07:55:01;101576.97;;;4.78;44.14
26657;BME280;14279;50.010;8.260;2023-04-04T07:57:27;101576.13;;;4.72;43.79
26657;BME280;14279;50.010;8.260;2023-04-04T07:59:53;101575.31;;;4.45;43.42
26657;BME280;14279;50.010;8.260;2023-04-04T08:02:18;101577.03;;;4.50;43.63
26657;BME280;14279;50.010;8.260;2023-04-04T08:04:43;101573.59;;;4.48;43.46
26657;BME280;14279;50.010;8.260;2023-04-04T08:07:08;101564.94;;;4.71;43.52
26657;BME280;14279;50.010;8.260;2023-04-04T08:09:34;101574.31;;;5.09;43.26
26657;BME280;14279;50.010;8.260;2023-04-04T08:12:01;101571.88;;;4.50;43.50
26657;BME280;14279;50.010;8.260;2023-04-04T08:14:27;101565.88;;;4.47;43.90
26657;BME280;14279;50.010;8.260;2023-04-04T08:16:52;101568.31;;;5.01;42.90
26657;BME280;14279;50.010;8.260;2023-04-04T08:19:18;101560.72;;;4.56;43.76
26657;BME280;14279;50.010;8.260;2023-04-04T08:21:43;101560.69;;;4.61;43.32
26657;BME280;14279;50.010;8.260;2023-04-04T08:24:10;101568.44;;;4.50;43.18
26657;BME280;14279;50.010;8.260;2023-04-04T08:26:35;101560.72;;;4.47;43.29
26657;BME280;14279;50.010;8.260;2023-04-04T08:29:01;101556.38;;;4.63;43.19
26657;BME280;14279;50.010;8.260;2023-04-04T08:31:26;101558.91;;;4.83;43.02
26657;BME280;14279;50.010;8.260;2023-04-04T08:33:52;101564.00;;;4.97;42.15
26657;BME280;14279;50.010;8.260;2023-04-04T08:36:17;101563.31;;;4.45;42.78
26657;BME280;14279;50.010;8.260;2023-04-04T08:38:43;101566.69;;;4.77;42.43
26657;BME280;14279;50.010;8.260;2023-04-04T08:41:10;101571.72;;;5.16;42.24
26657;BME280;14279;50.010;8.260;2023-04-04T08:43:37;101565.66;;;5.21;41.04
26657;BME280;14279;50.010;8.260;2023-04-04T08:46:04;101566.56;;;5.08;41.23
26657;BME280;14279;50.010;8.260;2023-04-04T08:48:30;101566.59;;;5.05;40.68
26657;BME280;14279;50.010;8.260;2023-04-04T08:50:58;101563.91;;;5.28;39.78
26657;BME280;14279;50.010;8.260;2023-04-04T08:53:24;101566.69;;;4.71;41.14
26657;BME280;14279;50.010;8.260;2023-04-04T08:55:52;101574.19;;;5.36;40.73
26657;BME280;14279;50.010;8.260;2023-04-04T08:58:18;101563.84;;;5.36;39.79
26657;BME280;14279;50.010;8.260;2023-04-04T09:00:43;101561.22;;;5.48;40.28
26657;BME280;14279;50.010;8.260;2023-04-04T09:05:34;101555.00;;;5.77;39.07
26657;BME280;14279;50.010;8.260;2023-04-04T09:08:01;101566.97;;;5.87;38.86
26657;BME280;14279;50.010;8.260;2023-04-04T09:10:29;101558.28;;;5.99;39.16
26657;BME280;14279;50.010;8.260;2023-04-04T09:12:55;101559.00;;;6.22;39.13
26657;BME280;14279;50.010;8.260;2023-04-04T09:15:20;101560.03;;;5.94;38.94
26657;BME280;14279;50.010;8.260;2023-04-04T09:17:46;101556.22;;;5.16;39.76
26657;BME280;14279;50.010;8.260;2023-04-04T09:20:36;101555.34;;;5.18;39.69
26657;BME280;14279;50.010;8.260;2023-04-04T09:23:11;101554.38;;;5.39;40.14
26657;BME280;14279;50.010;8.260;2023-04-04T09:25:43;101559.38;;;5.69;39.58
26657;BME280;14279;50.010;8.260;2023-04-04T09:28:08;101564.72;;;5.35;40.06
26657;BME280;14279;50.010;8.260;2023-04-04T09:30:35;101570.66;;;5.51;39.72
26657;BME280;14279;50.010;8.260;2023-04-04T09:33:02;101554.25;;;5.61;39.50
26657;BME280;14279;50.010;8.260;2023-04-04T09:35:31;101549.09;;;5.58;39.68
26657;BME280;14279;50.010;8.260;2023-04-04T09:37:57;101541.09;;;5.92;39.33
26657;BME280;14279;50.010;8.260;2023-04-04T09:40:22;101545.50;;;5.84;39.42
26657;BME280;14279;50.010;8.260;2023-04-04T09:42:48;101561.94;;;5.72;39.40
26657;BME280;14279;50.010;8.260;2023-04-04T09:45:36;101561.91;;;5.74;39.43
26657;BME280;14279;50.010;8.260;2023-04-04T09:48:09;101560.34;;;5.49;39.01
26657;BME280;14279;50.010;8.260;2023-04-04T09:51:10;101550.78;;;5.64;39.05
26657;BME280;14279;50.010;8.260;2023-04-04T10:03:59;101548.91;;;5.86;38.87
26657;BME280;14279;50.010;8.260;2023-04-04T10:06:37;101547.31;;;5.71;39.27
26657;BME280;14279;50.010;8.260;2023-04-04T10:09:09;101547.34;;;5.62;38.97
26657;BME280;14279;50.010;8.260;2023-04-04T10:11:41;101543.66;;;6.01;38.58
26657;BME280;14279;50.010;8.260;2023-04-04T10:14:08;101541.63;;;6.36;37.88
26657;BME280;14279;50.010;8.260;2023-04-04T10:16:33;101533.03;;;6.34;37.65
26657;BME280;14279;50.010;8.260;2023-04-04T10:19:03;101529.63;;;6.27;38.34
26657;BME280;14279;50.010;8.260;2023-04-04T10:21:31;101535.63;;;6.32;38.48
26657;BME280;14279;50.010;8.260;2023-04-04T10:23:57;101542.69;;;6.13;39.47
26657;BME280;14279;50.010;8.260;2023-04-04T10:26:24;101537.66;;;5.92;39.75
26657;BME280;14279;50.010;8.260;2023-04-04T10:28:50;101542.66;;;6.16;39.01
26657;BME280;14279;50.010;8.260;2023-04-04T10:31:18;101538.81;;;6.58;38.26
26657;BME280;14279;50.010;8.260;2023-04-04T10:33:49;101536.56;;;7.03;37.80
26657;BME280;14279;50.010;8.260;2023-04-04T10:36:21;101540.97;;;6.97;38.05
26657;BME280;14279;50.010;8.260;2023-04-04T10:38:59;101533.25;;;6.95;38.21
26657;BME280;14279;50.010;8.260;2023-04-04T10:41:28;101529.47;;;6.44;38.58
26657;BME280;14279;50.010;8.260;2023-04-04T10:43:55;101537.94;;;6.59;38.03
26657;BME280;14279;50.010;8.260;2023-04-04T10:46:23;101536.13;;;6.66;37.94
26657;BME280;14279;50.010;8.260;2023-04-04T10:48:55;101524.50;;;7.02;36.72
26657;BME280;14279;50.010;8.260;2023-04-04T10:51:21;101518.47;;;7.02;36.67
26657;BME280;14279;50.010;8.260;2023-04-04T10:53:46;101516.13;;;6.82;36.61
26657;BME280;14279;50.010;8.260;2023-04-04T10:56:12;101528.81;;;6.24;37.20
26657;BME280;14279;50.010;8.260;2023-04-04T10:58:38;101515.66;;;6.47;36.83
26657;BME280;14279;50.010;8.260;2023-04-04T11:01:07;101520.38;;;6.01;37.29
26657;BME280;14279;50.010;8.260;2023-04-04T11:09:53;101498.34;;;6.52;37.95
26657;BME280;14279;50.010;8.260;2023-04-04T11:12:26;101500.63;;;6.80;37.37
26657;BME280;14279;50.010;8.260;2023-04-04T11:17:50;101490.75;;;7.10;37.16
26657;BME280;14279;50.010;8.260;2023-04-04T11:20:21;101485.91;;;7.46;36.31
26657;BME280;14279;50.010;8.260;2023-04-04T11:23:00;101491.38;;;7.82;35.89
26657;BME280;14279;50.010;8.260;2023-04-04T11:25:31;101475.78;;;7.86;36.58
26657;BME280;14279;50.010;8.260;2023-04-04T11:27:57;101477.38;;;7.94;35.63
26657;BME280;14279;50.010;8.260;2023-04-04T11:30:25;101471.03;;;8.11;34.81
26657;BME280;14279;50.010;8.260;2023-04-04T11:32:56;101468.69;;;8.44;34.13
26657;BME280;14279;50.010;8.260;2023-04-04T11:35:22;101475.03;;;8.29;34.16
26657;BME280;14279;50.010;8.260;2023-04-04T11:40:17;101473.09;;;7.39;35.47
26657;BME280;14279;50.010;8.260;2023-04-04T11:42:42;101460.50;;;7.14;35.76
26657;BME280;14279;50.010;8.260;2023-04-04T11:45:09;101466.56;;;7.11;35.75
26657;BME280;14279;50.010;8.260;2023-04-04T11:47:45;101457.25;;;7.57;34.75
26657;BME280;14279;50.010;8.260;2023-04-04T11:50:13;101452.81;;;7.65;34.98
26657;BME280;14279;50.010;8.260;2023-04-04T11:52:41;101457.03;;;7.71;34.82
26657;BME280;14279;50.010;8.260;2023-04-04T11:55:17;101451.16;;;7.60;34.74
26657;BME280;14279;50.010;8.260;2023-04-04T11:57:45;101443.22;;;7.69;34.87
26657;BME280;14279;50.010;8.260;2023-04-04T12:00:12;101434.81;;;7.58;35.04
26657;BME280;14279;50.010;8.260;2023-04-04T12:02:51;101440.41;;;7.28;35.08
26657;BME280;14279;50.010;8.260;2023-04-04T12:05:17;101432.09;;;7.64;35.72
26657;BME280;14279;50.010;8.260;2023-04-04T12:07:42;101439.91;;;7.62;35.86
26657;BME280;14279;50.010;8.260;2023-04-04T12:10:08;101437.63;;;7.94;35.25
26657;BME280;14279;50.010;8.260;2023-04-04T12:12:36;101442.16;;;7.81;36.03
26657;BME280;14279;50.010;8.260;2023-04-04T12:15:02;101438.78;;;7.77;34.25
26657;BME280;14279;50.010;8.260;2023-04-04T12:17:28;101434.94;;;8.00;34.32
26657;BME280;14279;50.010;8.260;2023-04-04T12:19:53;101441.56;;;8.15;33.54
26657;BME280;14279;50.010;8.260;2023-04-04T12:22:18;101429.50;;;8.12;33.89
26657;BME280;14279;50.010;8.260;2023-04-04T12:24:45;101434.34;;;7.82;34.70
26657;BME280;14279;50.010;8.260;2023-04-04T12:27:10;101436.09;;;7.82;35.05
26657;BME280;14279;50.010;8.260;2023-04-04T12:29:35;101423.94;;;7.87;34.21
26657;BME280;14279;50.010;8.260;2023-04-04T12:32:02;101425.88;;;8.23;33.78
26657;BME280;14279;50.010;8.260;2023-04-04T12:34:29;101420.63;;;8.26;33.62
26657;BME280;14279;50.010;8.260;2023-04-04T12:36:56;101408.16;;;7.98;34.03
26657;BME280;14279;50.010;8.260;2023-04-04T12:39:25;101417.00;;;8.33;34.38
26657;BME280;14279;50.010;8.260;2023-04-04T12:42:00;101420.25;;;7.99;34.62
26657;BME280;14279;50.010;8.260;2023-04-04T12:44:38;101419.44;;;7.97;34.26
26657;BME280;14279;50.010;8.260;2023-04-04T12:47:05;101416.00;;;7.95;34.29
26657;BME280;14279;50.010;8.260;2023-04-04T12:49:38;101413.03;;;8.15;33.80
26657;BME280;14279;50.010;8.260;2023-04-04T12:52:04;101414.97;;;8.05;33.72
26657;BME280;14279;50.010;8.260;2023-04-04T12:54:33;101409.38;;;8.25;33.60
26657;BME280;14279;50.010;8.260;2023-04-04T12:57:01;101401.38;;;8.79;33.02
26657;BME280;14279;50.010;8.260;2023-04-04T12:59:29;101400.75;;;8.25;34.49
26657;BME280;14279;50.010;8.260;2023-04-04T13:01:55;101396.38;;;8.27;34.06
26657;BME280;14279;50.010;8.260;2023-04-04T13:04:21;101392.28;;;8.61;33.90
26657;BME280;14279;50.010;8.260;2023-04-04T13:06:47;101383.31;;;8.74;33.67
26657;BME280;14279;50.010;8.260;2023-04-04T13:09:16;101384.78;;;8.86;33.65
26657;BME280;14279;50.010;8.260;2023-04-04T13:14:20;101377.03;;;9.22;33.43
26657;BME280;14279;50.010;8.260;2023-04-04T13:17:00;101380.00;;;9.43;33.44
26657;BME280;14279;50.010;8.260;2023-04-04T13:19:27;101381.25;;;8.90;32.84
26657;BME280;14279;50.010;8.260;2023-04-04T13:21:52;101364.88;;;9.24;32.84
26657;BME280;14279;50.010;8.260;2023-04-04T13:24:18;101364.16;;;9.52;32.76